Terminal Aerodrome Forecast
Issued by NWS

Home | Current Version | Previous Version | Graphics & Text | Print | Product List | Glossary On
Versions: 1 2 3 4 5 6 7 8 9 10 11 12 13 14
009
FTUS43 KICT 251727
TAFSLN
TAF
KSLN 251727Z 2518/2618 33010G17KT P6SM BKN035
     FM252300 34012KT P6SM BKN030
     FM260000 34013KT P6SM VCSH OVC025
     FM260500 34015G23KT P6SM VCSH OVC015
     FM261200 34016G24KT P6SM OVC030
     FM261600 34016G25KT P6SM BKN040=

USA.gov is the U.S. government's official web portal to all federal, state and local government web resources and services.